sensor_id;sensor_type;location;lat;lon;timestamp;pressure;altitude;pressure_sealevel;temperature;humidity
62864;BME280;48954;59.950;11.014;2022-11-20T00:00:49;100355.58;;;-3.70;71.52
62864;BME280;48954;59.950;11.014;2022-11-20T00:04:30;100356.95;;;-3.68;71.90
62864;BME280;48954;59.950;11.014;2022-11-20T00:07:48;100349.80;;;-3.67;71.96
62864;BME280;48954;59.950;11.014;2022-11-20T00:27:38;100333.73;;;-3.60;71.82
62864;BME280;48954;59.950;11.014;2022-11-20T00:30:47;100336.50;;;-3.58;71.87
62864;BME280;48954;59.950;11.014;2022-11-20T00:34:09;100330.46;;;-3.60;71.60
62864;BME280;48954;59.950;11.014;2022-11-20T00:45:43;100339.16;;;-3.52;71.96
62864;BME280;48954;59.950;11.014;2022-11-20T01:01:09;100342.75;;;-3.44;71.89
62864;BME280;48954;59.950;11.014;2022-11-20T01:04:29;100341.80;;;-3.43;71.79
62864;BME280;48954;59.950;11.014;2022-11-20T01:07:38;100332.71;;;-3.42;71.64
62864;BME280;48954;59.950;11.014;2022-11-20T01:11:01;100328.90;;;-3.42;71.72
62864;BME280;48954;59.950;11.014;2022-11-20T01:14:01;100329.39;;;-3.41;71.97
62864;BME280;48954;59.950;11.014;2022-11-20T01:16:52;100326.98;;;-3.41;71.64
62864;BME280;48954;59.950;11.014;2022-11-20T01:19:32;100325.71;;;-3.43;71.74
62864;BME280;48954;59.950;11.014;2022-11-20T01:22:44;100326.64;;;-3.42;71.64
62864;BME280;48954;59.950;11.014;2022-11-20T01:26:12;100326.20;;;-3.43;71.70
62864;BME280;48954;59.950;11.014;2022-11-20T02:06:32;100291.92;;;-3.47;71.77
62864;BME280;48954;59.950;11.014;2022-11-20T02:12:06;100287.19;;;-3.43;71.78
62864;BME280;48954;59.950;11.014;2022-11-20T02:15:30;100283.66;;;-3.41;71.95
62864;BME280;48954;59.950;11.014;2022-11-20T02:18:19;100274.52;;;-3.41;71.55
62864;BME280;48954;59.950;11.014;2022-11-20T02:21:43;100272.11;;;-3.40;71.98
62864;BME280;48954;59.950;11.014;2022-11-20T02:24:59;100272.92;;;-3.39;71.79
62864;BME280;48954;59.950;11.014;2022-11-20T02:28:01;100267.35;;;-3.38;71.88
62864;BME280;48954;59.950;11.014;2022-11-20T02:30:43;100263.74;;;-3.36;71.82
62864;BME280;48954;59.950;11.014;2022-11-20T02:33:27;100258.27;;;-3.35;71.89
62864;BME280;48954;59.950;11.014;2022-11-20T02:36:19;100256.71;;;-3.34;71.84
62864;BME280;48954;59.950;11.014;2022-11-20T02:39:09;100253.33;;;-3.34;71.74
62864;BME280;48954;59.950;11.014;2022-11-20T02:42:11;100247.46;;;-3.34;71.95
62864;BME280;48954;59.950;11.014;2022-11-20T02:44:56;100240.53;;;-3.33;71.74
62864;BME280;48954;59.950;11.014;2022-11-20T02:47:38;100244.73;;;-3.34;71.85
62864;BME280;48954;59.950;11.014;2022-11-20T02:50:41;100244.27;;;-3.35;71.97
62864;BME280;48954;59.950;11.014;2022-11-20T02:56:14;100251.05;;;-3.38;71.85
62864;BME280;48954;59.950;11.014;2022-11-20T02:58:58;100247.23;;;-3.38;71.97
62864;BME280;48954;59.950;11.014;2022-11-20T03:01:45;100247.05;;;-3.40;72.08
62864;BME280;48954;59.950;11.014;2022-11-20T03:05:00;100244.45;;;-3.42;72.04
62864;BME280;48954;59.950;11.014;2022-11-20T03:10:48;100242.84;;;-3.42;72.03
62864;BME280;48954;59.950;11.014;2022-11-20T03:13:49;100241.98;;;-3.42;72.04
62864;BME280;48954;59.950;11.014;2022-11-20T03:16:33;100246.25;;;-3.40;71.95
62864;BME280;48954;59.950;11.014;2022-11-20T03:19:17;100240.52;;;-3.39;71.93
62864;BME280;48954;59.950;11.014;2022-11-20T03:21:58;100242.44;;;-3.37;72.07
62864;BME280;48954;59.950;11.014;2022-11-20T03:24:47;100238.09;;;-3.35;72.05
62864;BME280;48954;59.950;11.014;2022-11-20T03:27:34;100236.66;;;-3.33;72.01
62864;BME280;48954;59.950;11.014;2022-11-20T03:30:34;100245.45;;;-3.31;71.97
62864;BME280;48954;59.950;11.014;2022-11-20T03:33:36;100235.52;;;-3.29;72.29
62864;BME280;48954;59.950;11.014;2022-11-20T03:36:21;100233.48;;;-3.28;72.19
62864;BME280;48954;59.950;11.014;2022-11-20T03:39:08;100226.67;;;-3.27;72.18
62864;BME280;48954;59.950;11.014;2022-11-20T03:42:16;100225.59;;;-3.27;72.26
62864;BME280;48954;59.950;11.014;2022-11-20T03:45:25;100216.51;;;-3.26;72.18
62864;BME280;48954;59.950;11.014;2022-11-20T03:51:40;100212.69;;;-3.24;72.30
62864;BME280;48954;59.950;11.014;2022-11-20T03:54:43;100213.33;;;-3.24;72.36
62864;BME280;48954;59.950;11.014;2022-11-20T03:58:09;100216.90;;;-3.21;72.35
62864;BME280;48954;59.950;11.014;2022-11-20T04:09:50;100200.99;;;-3.19;72.00
62864;BME280;48954;59.950;11.014;2022-11-20T04:13:11;100197.18;;;-3.19;72.12
62864;BME280;48954;59.950;11.014;2022-11-20T04:16:11;100194.76;;;-3.19;72.22
62864;BME280;48954;59.950;11.014;2022-11-20T04:36:02;100187.10;;;-3.20;72.01
62864;BME280;48954;59.950;11.014;2022-11-20T04:47:12;100187.59;;;-3.20;72.33
62864;BME280;48954;59.950;11.014;2022-11-20T04:50:06;100181.19;;;-3.21;72.16
62864;BME280;48954;59.950;11.014;2022-11-20T04:53:06;100178.56;;;-3.19;72.21
62864;BME280;48954;59.950;11.014;2022-11-20T04:56:21;100177.66;;;-3.18;72.12
62864;BME280;48954;59.950;11.014;2022-11-20T04:59:41;100173.63;;;-3.17;72.08
62864;BME280;48954;59.950;11.014;2022-11-20T05:03:03;100173.90;;;-3.17;72.23
62864;BME280;48954;59.950;11.014;2022-11-20T05:06:08;100171.48;;;-3.17;72.12
62864;BME280;48954;59.950;11.014;2022-11-20T05:08:50;100175.52;;;-3.16;72.04
62864;BME280;48954;59.950;11.014;2022-11-20T05:11:39;100175.25;;;-3.16;72.28
62864;BME280;48954;59.950;11.014;2022-11-20T05:14:40;100175.41;;;-3.16;72.37
62864;BME280;48954;59.950;11.014;2022-11-20T05:17:50;100171.05;;;-3.16;72.12
62864;BME280;48954;59.950;11.014;2022-11-20T05:21:06;100167.95;;;-3.15;72.25
62864;BME280;48954;59.950;11.014;2022-11-20T05:24:29;100151.07;;;-3.19;72.10
62864;BME280;48954;59.950;11.014;2022-11-20T05:55:36;100129.59;;;-3.10;72.27
62864;BME280;48954;59.950;11.014;2022-11-20T05:58:22;100124.38;;;-3.09;72.24
62864;BME280;48954;59.950;11.014;2022-11-20T06:01:27;100115.81;;;-3.10;72.23
62864;BME280;48954;59.950;11.014;2022-11-20T06:32:51;100098.75;;;-3.03;72.10
62864;BME280;48954;59.950;11.014;2022-11-20T08:05:06;100033.88;;;-2.93;72.70
62864;BME280;48954;59.950;11.014;2022-11-20T08:07:39;100029.25;;;-2.93;72.73
62864;BME280;48954;59.950;11.014;2022-11-20T08:10:20;100024.63;;;-2.92;72.69
62864;BME280;48954;59.950;11.014;2022-11-20T08:12:54;100024.91;;;-2.90;72.62
62864;BME280;48954;59.950;11.014;2022-11-20T08:15:36;100020.06;;;-2.91;72.88
62864;BME280;48954;59.950;11.014;2022-11-20T08:18:08;100024.70;;;-2.88;72.66
62864;BME280;48954;59.950;11.014;2022-11-20T08:20:35;100021.86;;;-2.87;72.67
62864;BME280;48954;59.950;11.014;2022-11-20T08:23:16;100009.73;;;-2.86;72.75
62864;BME280;48954;59.950;11.014;2022-11-20T08:25:49;100008.23;;;-2.83;72.77
62864;BME280;48954;59.950;11.014;2022-11-20T08:28:17;100002.89;;;-2.83;72.69
62864;BME280;48954;59.950;11.014;2022-11-20T08:30:49;99995.73;;;-2.83;72.64
62864;BME280;48954;59.950;11.014;2022-11-20T08:33:16;99996.23;;;-2.82;72.68
62864;BME280;48954;59.950;11.014;2022-11-20T08:35:43;99988.86;;;-2.80;72.81
62864;BME280;48954;59.950;11.014;2022-11-20T08:38:10;99993.55;;;-2.79;72.69
62864;BME280;48954;59.950;11.014;2022-11-20T08:40:39;100006.00;;;-2.78;72.68
62864;BME280;48954;59.950;11.014;2022-11-20T08:43:06;100010.41;;;-2.77;72.61
62864;BME280;48954;59.950;11.014;2022-11-20T08:45:34;100016.55;;;-2.77;72.67
62864;BME280;48954;59.950;11.014;2022-11-20T08:48:02;100013.00;;;-2.74;72.61
62864;BME280;48954;59.950;11.014;2022-11-20T08:50:30;100009.98;;;-2.73;72.71
62864;BME280;48954;59.950;11.014;2022-11-20T08:53:07;100003.14;;;-2.70;72.60
62864;BME280;48954;59.950;11.014;2022-11-20T08:55:34;100006.98;;;-2.69;72.36
62864;BME280;48954;59.950;11.014;2022-11-20T08:58:08;100004.66;;;-2.68;72.75
62864;BME280;48954;59.950;11.014;2022-11-20T09:00:36;100005.15;;;-2.66;72.53
62864;BME280;48954;59.950;11.014;2022-11-20T09:03:08;100011.63;;;-2.65;72.61
62864;BME280;48954;59.950;11.014;2022-11-20T09:05:35;100015.48;;;-2.65;72.49
62864;BME280;48954;59.950;11.014;2022-11-20T09:08:02;100010.70;;;-2.65;72.43
62864;BME280;48954;59.950;11.014;2022-11-20T09:10:30;100013.83;;;-2.66;72.39
62864;BME280;48954;59.950;11.014;2022-11-20T09:12:57;100020.29;;;-2.65;72.44
62864;BME280;48954;59.950;11.014;2022-11-20T09:15:25;100021.32;;;-2.64;72.23
62864;BME280;48954;59.950;11.014;2022-11-20T09:18:06;100026.55;;;-2.64;72.39
62864;BME280;48954;59.950;11.014;2022-11-20T09:20:34;100023.64;;;-2.62;72.23
62864;BME280;48954;59.950;11.014;2022-11-20T09:23:11;100017.95;;;-2.61;72.37
62864;BME280;48954;59.950;11.014;2022-11-20T09:25:39;100015.73;;;-2.60;72.10
62864;BME280;48954;59.950;11.014;2022-11-20T09:28:07;100010.45;;;-2.60;72.12
62864;BME280;48954;59.950;11.014;2022-11-20T09:30:34;100009.41;;;-2.58;72.14
62864;BME280;48954;59.950;11.014;2022-11-20T09:33:06;100007.31;;;-2.58;72.06
62864;BME280;48954;59.950;11.014;2022-11-20T09:35:34;100008.23;;;-2.55;71.99
62864;BME280;48954;59.950;11.014;2022-11-20T09:38:05;100006.80;;;-2.54;72.34
62864;BME280;48954;59.950;11.014;2022-11-20T09:40:34;100003.89;;;-2.54;72.11
62864;BME280;48954;59.950;11.014;2022-11-20T09:43:24;100004.16;;;-2.53;72.19
62864;BME280;48954;59.950;11.014;2022-11-20T09:54:14;99983.69;;;-2.50;72.12
62864;BME280;48954;59.950;11.014;2022-11-20T09:56:54;99983.55;;;-2.49;72.19
62864;BME280;48954;59.950;11.014;2022-11-20T09:59:40;99979.08;;;-2.49;71.83
62864;BME280;48954;59.950;11.014;2022-11-20T10:02:26;99974.02;;;-2.47;72.10
62864;BME280;48954;59.950;11.014;2022-11-20T10:05:11;99969.73;;;-2.46;72.07
62864;BME280;48954;59.950;11.014;2022-11-20T10:10:27;99961.23;;;-2.43;72.05
62864;BME280;48954;59.950;11.014;2022-11-20T10:13:10;99959.45;;;-2.44;72.16
62864;BME280;48954;59.950;11.014;2022-11-20T10:21:30;99951.74;;;-2.43;72.07
62864;BME280;48954;59.950;11.014;2022-11-20T10:24:24;99942.69;;;-2.44;71.84
62864;BME280;48954;59.950;11.014;2022-11-20T10:30:15;99929.46;;;-2.47;72.15
62864;BME280;48954;59.950;11.014;2022-11-20T10:32:49;99923.16;;;-2.48;71.87
62864;BME280;48954;59.950;11.014;2022-11-20T10:38:38;99913.41;;;-2.48;71.80
62864;BME280;48954;59.950;11.014;2022-11-20T10:41:53;99914.66;;;-2.48;71.69
62864;BME280;48954;59.950;11.014;2022-11-20T10:44:28;99908.13;;;-2.48;71.82
62864;BME280;48954;59.950;11.014;2022-11-20T10:46:56;99904.36;;;-2.47;71.64
62864;BME280;48954;59.950;11.014;2022-11-20T10:49:25;99895.52;;;-2.45;71.78
62864;BME280;48954;59.950;11.014;2022-11-20T10:55:42;99883.65;;;-2.43;71.80
62864;BME280;48954;59.950;11.014;2022-11-20T11:00:48;99869.44;;;-2.44;71.70
62864;BME280;48954;59.950;11.014;2022-11-20T11:03:44;99865.77;;;-2.50;71.84
62864;BME280;48954;59.950;11.014;2022-11-20T11:09:15;99863.31;;;-2.47;71.74
62864;BME280;48954;59.950;11.014;2022-11-20T11:12:05;99867.24;;;-2.48;71.63
62864;BME280;48954;59.950;11.014;2022-11-20T11:14:48;99863.58;;;-2.46;71.75
62864;BME280;48954;59.950;11.014;2022-11-20T11:17:25;99865.07;;;-2.44;71.78
62864;BME280;48954;59.950;11.014;2022-11-20T11:20:05;99865.56;;;-2.40;71.72
62864;BME280;48954;59.950;11.014;2022-11-20T11:22:48;99863.52;;;-2.37;71.80
62864;BME280;48954;59.950;11.014;2022-11-20T11:25:32;99856.13;;;-2.34;71.90
62864;BME280;48954;59.950;11.014;2022-11-20T11:28:43;99851.58;;;-2.33;71.57
62864;BME280;48954;59.950;11.014;2022-11-20T11:30:50;99846.75;;;-2.34;71.67
62864;BME280;48954;59.950;11.014;2022-11-20T11:33:31;99846.20;;;-2.31;71.85
62864;BME280;48954;59.950;11.014;2022-11-20T11:36:17;99838.13;;;-2.32;72.01
62864;BME280;48954;59.950;11.014;2022-11-20T11:38:52;99839.14;;;-2.30;72.00
62864;BME280;48954;59.950;11.014;2022-11-20T11:41:32;99835.74;;;-2.31;71.98
62864;BME280;48954;59.950;11.014;2022-11-20T11:46:51;99825.05;;;-2.36;71.81
62864;BME280;48954;59.950;11.014;2022-11-20T11:49:24;99823.82;;;-2.36;72.01
62864;BME280;48954;59.950;11.014;2022-11-20T11:52:17;99812.76;;;-2.35;72.08
62864;BME280;48954;59.950;11.014;2022-11-20T11:55:04;99810.05;;;-2.32;72.20
62864;BME280;48954;59.950;11.014;2022-11-20T12:00:58;99802.12;;;-2.28;71.98
62864;BME280;48954;59.950;11.014;2022-11-20T12:07:34;99797.50;;;-2.24;71.92
62864;BME280;48954;59.950;11.014;2022-11-20T12:16:09;99783.02;;;-2.19;72.04
62864;BME280;48954;59.950;11.014;2022-11-20T12:18:42;99778.11;;;-2.19;71.96
62864;BME280;48954;59.950;11.014;2022-11-20T12:30:14;99785.27;;;-2.18;72.07
62864;BME280;48954;59.950;11.014;2022-11-20T12:41:39;99777.40;;;-2.16;72.39
62864;BME280;48954;59.950;11.014;2022-11-20T12:47:12;99765.60;;;-2.28;72.37
62864;BME280;48954;59.950;11.014;2022-11-20T12:52:58;99761.61;;;-2.30;72.55
62864;BME280;48954;59.950;11.014;2022-11-20T12:55:59;99759.79;;;-2.33;72.45
62864;BME280;48954;59.950;11.014;2022-11-20T13:02:16;99744.63;;;-2.40;72.36
62864;BME280;48954;59.950;11.014;2022-11-20T13:05:24;99741.07;;;-2.43;72.63
62864;BME280;48954;59.950;11.014;2022-11-20T13:08:02;99735.14;;;-2.45;72.47
62864;BME280;48954;59.950;11.014;2022-11-20T13:10:49;99727.41;;;-2.50;72.84
62864;BME280;48954;59.950;11.014;2022-11-20T13:16:38;99729.78;;;-2.47;73.00
62864;BME280;48954;59.950;11.014;2022-11-20T13:19:15;99726.83;;;-2.51;72.90
62864;BME280;48954;59.950;11.014;2022-11-20T13:21:49;99730.27;;;-2.50;72.91
62864;BME280;48954;59.950;11.014;2022-11-20T13:24:31;99731.73;;;-2.50;73.04
62864;BME280;48954;59.950;11.014;2022-11-20T13:29:33;99719.34;;;-2.50;73.02
62864;BME280;48954;59.950;11.014;2022-11-20T13:32:26;99714.82;;;-2.51;73.37
62864;BME280;48954;59.950;11.014;2022-11-20T13:38:05;99714.61;;;-2.57;72.86
62864;BME280;48954;59.950;11.014;2022-11-20T13:44:05;99712.42;;;-2.60;72.90
62864;BME280;48954;59.950;11.014;2022-11-20T13:46:55;99713.02;;;-2.60;73.10
62864;BME280;48954;59.950;11.014;2022-11-20T13:58:44;99682.83;;;-2.56;73.22
62864;BME280;48954;59.950;11.014;2022-11-20T14:01:40;99677.62;;;-2.57;73.20
62864;BME280;48954;59.950;11.014;2022-11-20T14:04:46;99673.73;;;-2.57;72.96
62864;BME280;48954;59.950;11.014;2022-11-20T14:07:57;99665.34;;;-2.59;72.95
62864;BME280;48954;59.950;11.014;2022-11-20T14:10:39;99664.84;;;-2.62;72.83
62864;BME280;48954;59.950;11.014;2022-11-20T14:25:48;99657.99;;;-2.66;72.84
62864;BME280;48954;59.950;11.014;2022-11-20T14:31:37;99655.52;;;-2.67;73.29
62864;BME280;48954;59.950;11.014;2022-11-20T14:35:07;99654.77;;;-2.67;73.19
62864;BME280;48954;59.950;11.014;2022-11-20T14:38:02;99648.85;;;-2.68;73.00
62864;BME280;48954;59.950;11.014;2022-11-20T14:40:43;99642.79;;;-2.75;72.86
62864;BME280;48954;59.950;11.014;2022-11-20T14:46:08;99639.94;;;-2.73;72.90
62864;BME280;48954;59.950;11.014;2022-11-20T14:49:18;99640.16;;;-2.75;73.02
62864;BME280;48954;59.950;11.014;2022-11-20T14:54:55;99623.02;;;-2.84;72.95
62864;BME280;48954;59.950;11.014;2022-11-20T14:57:32;99625.30;;;-2.78;73.02
62864;BME280;48954;59.950;11.014;2022-11-20T15:00:17;99619.01;;;-2.78;72.83
62864;BME280;48954;59.950;11.014;2022-11-20T15:02:54;99619.13;;;-2.79;73.07
62864;BME280;48954;59.950;11.014;2022-11-20T15:05:23;99616.80;;;-2.80;73.14
62864;BME280;48954;59.950;11.014;2022-11-20T15:08:13;99614.65;;;-2.80;72.82
62864;BME280;48954;59.950;11.014;2022-11-20T15:10:46;99603.30;;;-2.84;72.97
62864;BME280;48954;59.950;11.014;2022-11-20T15:13:36;99613.15;;;-2.80;73.19
62864;BME280;48954;59.950;11.014;2022-11-20T15:16:12;99611.96;;;-2.81;73.26
62864;BME280;48954;59.950;11.014;2022-11-20T15:18:47;99604.58;;;-2.80;73.07
62864;BME280;48954;59.950;11.014;2022-11-20T15:21:17;99598.94;;;-2.82;73.04
62864;BME280;48954;59.950;11.014;2022-11-20T15:23:48;99594.79;;;-2.83;73.03
62864;BME280;48954;59.950;11.014;2022-11-20T15:26:23;99597.75;;;-2.80;73.26
62864;BME280;48954;59.950;11.014;2022-11-20T15:28:55;99595.33;;;-2.79;72.96
62864;BME280;48954;59.950;11.014;2022-11-20T15:31:33;99592.00;;;-2.81;73.34
62864;BME280;48954;59.950;11.014;2022-11-20T15:34:00;99592.25;;;-2.80;73.22
62864;BME280;48954;59.950;11.014;2022-11-20T15:36:27;99593.92;;;-2.81;73.40
62864;BME280;48954;59.950;11.014;2022-11-20T15:38:56;99584.34;;;-2.82;73.26
62864;BME280;48954;59.950;11.014;2022-11-20T15:41:36;99586.49;;;-2.82;73.40
62864;BME280;48954;59.950;11.014;2022-11-20T15:44:08;99580.64;;;-2.82;73.26
62864;BME280;48954;59.950;11.014;2022-11-20T15:46:55;99579.23;;;-2.82;73.39
62864;BME280;48954;59.950;11.014;2022-11-20T15:49:58;99575.67;;;-2.80;73.30
62864;BME280;48954;59.950;11.014;2022-11-20T15:55:27;99566.48;;;-2.84;73.02
62864;BME280;48954;59.950;11.014;2022-11-20T15:58:27;99566.60;;;-2.85;72.96
62864;BME280;48954;59.950;11.014;2022-11-20T16:01:18;99569.08;;;-2.83;72.95
62864;BME280;48954;59.950;11.014;2022-11-20T16:03:47;99570.98;;;-2.76;73.05
62864;BME280;48954;59.950;11.014;2022-11-20T16:06:13;99570.45;;;-2.75;72.93
62864;BME280;48954;59.950;11.014;2022-11-20T16:08:52;99566.46;;;-2.75;73.10
62864;BME280;48954;59.950;11.014;2022-11-20T16:11:18;99561.02;;;-2.74;72.97
62864;BME280;48954;59.950;11.014;2022-11-20T16:13:46;99552.15;;;-2.78;72.89
62864;BME280;48954;59.950;11.014;2022-11-20T16:16:35;99559.14;;;-2.74;73.06
62864;BME280;48954;59.950;11.014;2022-11-20T16:19:03;99557.09;;;-2.75;72.79
62864;BME280;48954;59.950;11.014;2022-11-20T16:21:31;99555.16;;;-2.75;73.10
62864;BME280;48954;59.950;11.014;2022-11-20T16:24:02;99543.66;;;-2.81;72.88
62864;BME280;48954;59.950;11.014;2022-11-20T16:26:30;99548.86;;;-2.76;73.09
62864;BME280;48954;59.950;11.014;2022-11-20T16:29:02;99542.83;;;-2.78;73.00
62864;BME280;48954;59.950;11.014;2022-11-20T16:31:35;99547.57;;;-2.78;73.10
62864;BME280;48954;59.950;11.014;2022-11-20T16:34:05;99545.36;;;-2.78;73.16
62864;BME280;48954;59.950;11.014;2022-11-20T16:36:33;99542.89;;;-2.81;72.97
62864;BME280;48954;59.950;11.014;2022-11-20T16:39:02;99544.62;;;-2.79;73.03
62864;BME280;48954;59.950;11.014;2022-11-20T16:41:38;99540.73;;;-2.80;73.02
62864;BME280;48954;59.950;11.014;2022-11-20T16:44:09;99539.28;;;-2.80;73.10
62864;BME280;48954;59.950;11.014;2022-11-20T16:46:37;99534.73;;;-2.82;73.17
62864;BME280;48954;59.950;11.014;2022-11-20T16:49:14;99542.08;;;-2.78;73.20
62864;BME280;48954;59.950;11.014;2022-11-20T16:51:43;99537.50;;;-2.79;73.24
62864;BME280;48954;59.950;11.014;2022-11-20T16:54:09;99537.83;;;-2.78;73.30
62864;BME280;48954;59.950;11.014;2022-11-20T16:56:37;99536.42;;;-2.78;73.19
62864;BME280;48954;59.950;11.014;2022-11-20T16:59:04;99529.70;;;-2.78;73.26
62864;BME280;48954;59.950;11.014;2022-11-20T17:01:31;99526.95;;;-2.79;72.96
62864;BME280;48954;59.950;11.014;2022-11-20T17:04:12;99525.93;;;-2.78;73.39
62864;BME280;48954;59.950;11.014;2022-11-20T17:06:41;99525.71;;;-2.79;73.26
62864;BME280;48954;59.950;11.014;2022-11-20T17:09:08;99520.67;;;-2.81;73.22
62864;BME280;48954;59.950;11.014;2022-11-20T17:11:40;99519.16;;;-2.81;73.10
62864;BME280;48954;59.950;11.014;2022-11-20T17:14:09;99524.74;;;-2.79;73.40
62864;BME280;48954;59.950;11.014;2022-11-20T17:16:37;99520.28;;;-2.80;73.28
62864;BME280;48954;59.950;11.014;2022-11-20T17:19:04;99520.39;;;-2.78;72.98
62864;BME280;48954;59.950;11.014;2022-11-20T17:21:34;99523.66;;;-2.77;73.02
62864;BME280;48954;59.950;11.014;2022-11-20T17:24:02;99520.65;;;-2.77;73.30
62864;BME280;48954;59.950;11.014;2022-11-20T17:26:30;99510.80;;;-2.77;73.13
62864;BME280;48954;59.950;11.014;2022-11-20T17:29:00;99508.00;;;-2.76;72.89
62864;BME280;48954;59.950;11.014;2022-11-20T17:31:28;99505.14;;;-2.76;72.88
62864;BME280;48954;59.950;11.014;2022-11-20T17:33:56;99499.55;;;-2.76;72.78
62864;BME280;48954;59.950;11.014;2022-11-20T17:36:23;99494.48;;;-2.76;72.66
62864;BME280;48954;59.950;11.014;2022-11-20T17:38:49;99491.25;;;-2.76;72.96
62864;BME280;48954;59.950;11.014;2022-11-20T17:41:25;99494.65;;;-2.76;72.45
62864;BME280;48954;59.950;11.014;2022-11-20T17:43:56;99489.10;;;-2.75;72.85
62864;BME280;48954;59.950;11.014;2022-11-20T17:46:25;99489.47;;;-2.75;72.54
62864;BME280;48954;59.950;11.014;2022-11-20T17:48:54;99483.82;;;-2.75;72.38
62864;BME280;48954;59.950;11.014;2022-11-20T17:51:23;99481.77;;;-2.75;72.70
62864;BME280;48954;59.950;11.014;2022-11-20T17:53:52;99482.11;;;-2.75;72.57
62864;BME280;48954;59.950;11.014;2022-11-20T17:56:19;99479.40;;;-2.75;72.55
62864;BME280;48954;59.950;11.014;2022-11-20T17:58:45;99478.11;;;-2.75;72.37
62864;BME280;48954;59.950;11.014;2022-11-20T18:01:14;99476.13;;;-2.75;72.45
62864;BME280;48954;59.950;11.014;2022-11-20T18:03:41;99470.73;;;-2.75;72.43
62864;BME280;48954;59.950;11.014;2022-11-20T18:06:13;99467.77;;;-2.75;72.21
62864;BME280;48954;59.950;11.014;2022-11-20T18:08:40;99457.71;;;-2.77;72.41
62864;BME280;48954;59.950;11.014;2022-11-20T18:11:22;99458.09;;;-2.76;72.11
62864;BME280;48954;59.950;11.014;2022-11-20T18:13:53;99455.35;;;-2.77;72.26
62864;BME280;48954;59.950;11.014;2022-11-20T18:16:19;99459.01;;;-2.76;72.26
62864;BME280;48954;59.950;11.014;2022-11-20T18:18:46;99456.73;;;-2.77;72.14
62864;BME280;48954;59.950;11.014;2022-11-20T18:21:13;99460.74;;;-2.79;72.26
62864;BME280;48954;59.950;11.014;2022-11-20T18:23:39;99452.40;;;-2.78;72.24
62864;BME280;48954;59.950;11.014;2022-11-20T18:26:05;99456.92;;;-2.77;72.02
62864;BME280;48954;59.950;11.014;2022-11-20T18:28:36;99451.48;;;-2.78;72.05
62864;BME280;48954;59.950;11.014;2022-11-20T18:31:07;99453.27;;;-2.81;72.13
62864;BME280;48954;59.950;11.014;2022-11-20T18:33:34;99451.33;;;-2.80;71.87
62864;BME280;48954;59.950;11.014;2022-11-20T18:36:20;99446.54;;;-2.81;72.04
62864;BME280;48954;59.950;11.014;2022-11-20T18:38:49;99447.89;;;-2.82;71.85
62864;BME280;48954;59.950;11.014;2022-11-20T18:41:18;99446.61;;;-2.84;72.14
62864;BME280;48954;59.950;11.014;2022-11-20T18:43:45;99441.11;;;-2.84;71.97
62864;BME280;48954;59.950;11.014;2022-11-20T18:46:12;99440.85;;;-2.85;71.79
62864;BME280;48954;59.950;11.014;2022-11-20T18:48:39;99440.91;;;-2.85;71.91
62864;BME280;48954;59.950;11.014;2022-11-20T18:51:06;99442.34;;;-2.87;71.88
62864;BME280;48954;59.950;11.014;2022-11-20T18:53:36;99437.92;;;-2.86;71.83
62864;BME280;48954;59.950;11.014;2022-11-20T18:56:04;99441.31;;;-2.86;71.82
62864;BME280;48954;59.950;11.014;2022-11-20T18:58:30;99439.27;;;-2.87;71.80
62864;BME280;48954;59.950;11.014;2022-11-20T19:01:06;99429.52;;;-2.87;71.62
62864;BME280;48954;59.950;11.014;2022-11-20T19:03:33;99420.16;;;-2.89;71.88
62864;BME280;48954;59.950;11.014;2022-11-20T19:06:00;99422.10;;;-2.87;71.68
62864;BME280;48954;59.950;11.014;2022-11-20T19:08:26;99417.27;;;-2.88;71.60
62864;BME280;48954;59.950;11.014;2022-11-20T19:11:04;99415.05;;;-2.87;71.86
62864;BME280;48954;59.950;11.014;2022-11-20T19:13:32;99410.37;;;-2.87;71.74
62864;BME280;48954;59.950;11.014;2022-11-20T19:16:14;99404.50;;;-2.87;71.68
62864;BME280;48954;59.950;11.014;2022-11-20T19:18:44;99403.27;;;-2.86;71.60
62864;BME280;48954;59.950;11.014;2022-11-20T19:21:14;99399.59;;;-2.86;71.71
62864;BME280;48954;59.950;11.014;2022-11-20T19:23:41;99395.61;;;-2.86;71.77
62864;BME280;48954;59.950;11.014;2022-11-20T19:26:08;99391.20;;;-2.86;71.42
62864;BME280;48954;59.950;11.014;2022-11-20T19:28:36;99390.06;;;-2.86;71.54
62864;BME280;48954;59.950;11.014;2022-11-20T19:31:21;99388.81;;;-2.86;71.64
62864;BME280;48954;59.950;11.014;2022-11-20T19:33:56;99385.27;;;-2.86;71.42
62864;BME280;48954;59.950;11.014;2022-11-20T19:36:25;99387.08;;;-2.85;71.51
62864;BME280;48954;59.950;11.014;2022-11-20T19:38:54;99384.45;;;-2.86;71.42
62864;BME280;48954;59.950;11.014;2022-11-20T19:41:23;99382.23;;;-2.89;71.23
62864;BME280;48954;59.950;11.014;2022-11-20T19:43:54;99384.85;;;-2.87;71.57
62864;BME280;48954;59.950;11.014;2022-11-20T19:46:23;99374.55;;;-2.91;71.37
62864;BME280;48954;59.950;11.014;2022-11-20T19:48:50;99378.45;;;-2.87;71.40
62864;BME280;48954;59.950;11.014;2022-11-20T19:51:33;99377.98;;;-2.87;71.22
62864;BME280;48954;59.950;11.014;2022-11-20T19:54:01;99375.70;;;-2.87;71.58
62864;BME280;48954;59.950;11.014;2022-11-20T19:56:32;99378.56;;;-2.88;71.20
62864;BME280;48954;59.950;11.014;2022-11-20T19:59:03;99376.69;;;-2.89;71.03
62864;BME280;48954;59.950;11.014;2022-11-20T20:01:33;99370.16;;;-2.88;71.23
62864;BME280;48954;59.950;11.014;2022-11-20T20:04:00;99369.04;;;-2.89;71.30
62864;BME280;48954;59.950;11.014;2022-11-20T20:15:22;99369.69;;;-2.89;71.24
62864;BME280;48954;59.950;11.014;2022-11-20T20:18:33;99368.94;;;-2.90;71.00
62864;BME280;48954;59.950;11.014;2022-11-20T20:21:35;99366.73;;;-2.91;71.09
62864;BME280;48954;59.950;11.014;2022-11-20T20:59:08;99346.88;;;-2.85;70.34
62864;BME280;48954;59.950;11.014;2022-11-20T21:01:50;99331.47;;;-2.91;70.47
62864;BME280;48954;59.950;11.014;2022-11-20T21:05:13;99346.83;;;-2.85;70.69
62864;BME280;48954;59.950;11.014;2022-11-20T21:08:36;99346.72;;;-2.85;70.61
62864;BME280;48954;59.950;11.014;2022-11-20T21:12:01;99346.11;;;-2.84;70.57